createdAt,value
2018-09-12T00:01:45.508Z,99677.34
2018-09-12T00:03:25.533Z,99743.47
2018-09-12T00:05:22.879Z,99788.91
2018-09-12T00:07:01.545Z,99876.44
2018-09-12T00:08:41.097Z,99892.46
2018-09-12T00:10:22.286Z,99877.78
2018-09-12T00:11:58.590Z,99864.44
2018-09-12T00:13:35.916Z,99854.33
2018-09-12T00:15:11.492Z,99854.33
2018-09-12T00:16:57.553Z,99813.94
2018-09-12T00:18:39.535Z,99818.00
2018-09-12T00:20:17.928Z,99818.87
2018-09-12T00:21:57.284Z,99832.22
2018-09-12T00:23:42.977Z,99839.72
2018-09-12T00:25:21.176Z,99833.57
2018-09-12T00:26:59.771Z,99827.38
2018-09-12T00:28:35.955Z,99822.83
2018-09-12T00:30:12.815Z,99829.12
2018-09-12T00:31:53.169Z,99811.47
2018-09-12T00:33:33.826Z,99742.32
2018-09-12T00:35:09.297Z,99721.00
2018-09-12T00:36:46.689Z,99714.44
2018-09-12T00:38:22.270Z,99738.36
2018-09-12T00:40:02.015Z,99757.78
2018-09-12T00:41:39.802Z,99812.44
2018-09-12T00:43:17.691Z,99773.31
2018-09-12T00:44:55.212Z,99689.77
2018-09-12T00:46:34.905Z,99693.21
2018-09-12T00:48:11.137Z,99670.16
2018-09-12T00:49:47.568Z,99693.21
2018-09-12T00:51:23.665Z,99707.77
2018-09-12T00:53:09.496Z,99735.76
2018-09-12T00:54:45.210Z,99798.75
2018-09-12T00:56:21.633Z,99848.86
2018-09-12T00:57:59.967Z,99800.10
2018-09-12T00:59:37.745Z,99755.80
2018-09-12T01:01:24.428Z,99696.89
2018-09-12T01:03:02.451Z,99691.13
2018-09-12T01:04:37.873Z,99614.43
2018-09-12T01:06:15.088Z,99612.20
2018-09-12T01:07:53.956Z,99636.61
2018-09-12T01:09:32.415Z,99664.59
2018-09-12T01:11:08.750Z,99677.41
2018-09-12T01:12:45.624Z,99711.20
2018-09-12T01:14:23.874Z,99696.02
2018-09-12T01:16:01.638Z,99716.03
2018-09-12T01:17:37.214Z,99732.42
2018-09-12T01:19:19.241Z,99732.81
2018-09-12T01:20:59.938Z,99707.62
2018-09-12T01:22:41.189Z,99691.34
2018-09-12T01:24:16.509Z,99701.34
2018-09-12T01:25:52.373Z,99708.11
2018-09-12T01:27:29.708Z,99764.00
2018-09-12T01:29:06.297Z,99874.38
2018-09-12T01:30:43.432Z,99841.53
2018-09-12T01:32:21.801Z,99837.22
2018-09-12T01:33:59.533Z,99833.64
2018-09-12T01:35:36.544Z,99769.84
2018-09-12T01:37:14.301Z,99663.45
2018-09-12T01:38:50.729Z,99553.14
2018-09-12T01:40:26.971Z,99488.47
2018-09-12T01:42:03.119Z,99416.75
2018-09-12T01:43:38.937Z,99328.22
2018-09-12T01:45:20.343Z,99203.23
2018-09-12T01:46:56.293Z,99196.48
2018-09-12T01:48:31.863Z,99257.09
2018-09-12T01:50:07.404Z,99305.97
2018-09-12T01:51:46.375Z,99323.30
2018-09-12T01:54:50.581Z,99238.90
2018-09-12T01:56:28.766Z,99133.36
2018-09-12T01:58:05.610Z,99152.41
2018-09-12T01:59:41.554Z,99160.16
2018-09-12T02:01:17.856Z,99131.15
2018-09-12T02:02:53.687Z,99147.98
2018-09-12T02:04:29.402Z,99173.97
2018-09-12T02:06:07.454Z,99300.92
2018-09-12T02:07:43.331Z,99334.50
2018-09-12T02:09:22.217Z,99368.61
2018-09-12T02:11:08.201Z,99375.98
2018-09-12T02:12:46.763Z,99337.20
2018-09-12T02:14:22.139Z,99273.58
2018-09-12T02:15:58.380Z,99178.02
2018-09-12T02:17:34.465Z,99126.45
2018-09-12T02:19:14.524Z,99085.89
2018-09-12T02:20:50.749Z,99087.99
2018-09-12T02:22:29.640Z,99153.00
2018-09-12T02:24:13.611Z,99227.58
2018-09-12T02:25:53.068Z,99224.50
2018-09-12T02:27:32.852Z,99116.76
2018-09-12T02:29:15.570Z,98830.68
2018-09-12T02:30:53.579Z,98629.27
2018-09-12T02:32:30.726Z,98538.48
2018-09-12T02:34:09.711Z,98530.13
2018-09-12T02:35:52.670Z,98596.20
2018-09-12T02:37:33.565Z,98551.35
2018-09-12T02:39:21.484Z,98458.10
2018-09-12T02:41:02.417Z,98411.95
2018-09-12T02:42:41.908Z,98413.66
2018-09-12T02:44:17.653Z,98395.04
2018-09-12T02:45:59.529Z,98346.31
2018-09-12T02:47:40.230Z,98311.70
2018-09-12T02:49:16.045Z,98267.30
2018-09-12T02:50:53.611Z,98203.11
2018-09-12T02:52:35.504Z,98138.16
2018-09-12T02:54:21.937Z,98086.72
2018-09-12T02:56:00.142Z,98090.75
2018-09-12T02:57:37.194Z,98103.81
2018-09-12T03:01:15.949Z,98150.38
2018-09-12T03:02:52.699Z,98201.88
2018-09-12T03:04:36.988Z,98211.03
2018-09-12T03:06:13.810Z,98143.28
2018-09-12T03:07:49.918Z,98069.73
2018-09-12T03:09:32.895Z,98019.28
2018-09-12T03:11:10.863Z,97960.89
2018-09-12T03:12:46.538Z,97947.23
2018-09-12T03:14:21.991Z,97933.66
2018-09-12T03:15:58.724Z,97885.97
2018-09-12T03:17:36.376Z,97875.46
2018-09-12T03:19:13.483Z,97849.55
2018-09-12T03:20:55.554Z,97807.11
2018-09-12T03:22:33.865Z,97750.53
2018-09-12T03:24:10.979Z,97713.81
2018-09-12T03:25:46.849Z,97741.38
2018-09-12T03:27:26.688Z,97867.67
2018-09-12T03:29:02.198Z,97988.98
2018-09-12T03:30:41.984Z,98055.30
2018-09-12T03:32:19.203Z,98068.14
2018-09-12T03:33:55.269Z,98035.63
2018-09-12T03:35:32.358Z,98008.91
2018-09-12T03:37:09.224Z,97952.85
2018-09-12T03:38:45.481Z,97908.17
2018-09-12T03:40:21.370Z,97887.06
2018-09-12T03:43:30.945Z,97807.38
2018-09-12T03:45:12.359Z,97763.97
2018-09-12T03:46:49.313Z,97734.08
2018-09-12T03:48:26.043Z,97751.27
2018-09-12T03:50:02.303Z,97814.31
2018-09-12T03:51:40.263Z,97910.86
2018-09-12T03:53:23.330Z,98003.89
2018-09-12T03:55:04.146Z,98070.61
2018-09-12T03:56:41.857Z,98159.20
2018-09-12T03:58:18.005Z,98233.20
2018-09-12T03:59:53.690Z,98232.34
2018-09-12T04:01:29.590Z,98211.77
2018-09-12T04:03:05.065Z,98148.80
2018-09-12T04:04:41.542Z,98201.61
2018-09-12T04:06:17.423Z,98302.30
2018-09-12T04:07:52.960Z,98377.93
2018-09-12T04:09:29.360Z,98402.65
2018-09-12T04:11:05.399Z,98388.70
2018-09-12T04:12:41.336Z,98407.06
2018-09-12T04:14:17.470Z,98327.38
2018-09-12T04:15:53.359Z,98188.17
2018-09-12T04:17:34.840Z,98068.77
2018-09-12T04:19:10.272Z,98017.98
2018-09-12T04:20:45.646Z,97990.63
2018-09-12T04:22:21.626Z,97906.00
2018-09-12T04:23:57.412Z,97874.50
2018-09-12T04:25:32.763Z,97863.99
2018-09-12T04:27:08.199Z,97921.40
2018-09-12T04:28:43.692Z,97954.34
2018-09-12T04:30:19.625Z,97984.14
2018-09-12T04:31:55.103Z,98086.13
2018-09-12T04:33:30.397Z,98166.06
2018-09-12T04:35:06.051Z,98207.86
2018-09-12T04:36:41.842Z,98214.84
2018-09-12T04:38:17.743Z,98145.05
2018-09-12T04:39:53.373Z,98083.56
2018-09-12T04:41:33.085Z,98048.03
2018-09-12T04:43:16.263Z,97966.44
2018-09-12T04:44:51.686Z,97906.27
2018-09-12T04:46:28.710Z,97827.41
2018-09-12T04:48:04.370Z,97788.50
2018-09-12T04:49:39.750Z,97761.45
2018-09-12T04:51:17.837Z,97756.58
2018-09-12T04:52:53.796Z,97720.22
2018-09-12T04:54:29.161Z,97700.84
2018-09-12T04:56:07.369Z,97673.41
2018-09-12T04:57:42.861Z,97666.49
2018-09-12T04:59:22.026Z,97613.47
2018-09-12T05:00:57.678Z,97615.80
2018-09-12T05:02:34.724Z,97581.42
2018-09-12T05:04:10.186Z,97594.23
2018-09-12T05:05:46.591Z,97587.16
2018-09-12T05:07:22.650Z,97569.26
2018-09-12T05:08:58.593Z,97627.99
2018-09-12T05:10:34.986Z,97676.95
2018-09-12T05:12:13.300Z,97645.05
2018-09-12T05:13:49.180Z,97655.99
2018-09-12T05:15:27.559Z,97648.95
2018-09-12T05:17:03.601Z,97674.91
2018-09-12T05:18:41.261Z,97684.03
2018-09-12T05:20:17.383Z,97693.67
2018-09-12T05:21:58.566Z,97728.43
2018-09-12T05:23:33.928Z,97708.66
2018-09-12T05:25:10.747Z,97725.86
2018-09-12T05:26:47.992Z,97855.61
2018-09-12T05:28:30.372Z,97955.85
2018-09-12T05:30:10.957Z,98084.06
2018-09-12T05:31:47.709Z,98124.41
2018-09-12T05:33:26.194Z,98190.77
2018-09-12T05:35:04.960Z,98248.33
2018-09-12T05:36:45.071Z,98382.58
2018-09-12T05:38:24.326Z,98535.39
2018-09-12T05:40:04.543Z,98559.16
2018-09-12T05:41:43.995Z,98564.43
2018-09-12T05:43:20.879Z,98663.95
2018-09-12T05:44:56.152Z,98813.55
2018-09-12T05:46:32.519Z,99041.33
2018-09-12T05:48:08.465Z,99220.64
2018-09-12T05:49:45.253Z,99353.80
2018-09-12T05:51:21.331Z,99440.69
2018-09-12T05:52:56.674Z,99465.94
2018-09-12T05:54:33.360Z,99513.83
2018-09-12T05:56:08.766Z,99590.19
2018-09-12T05:57:46.190Z,99605.59
2018-09-12T05:59:22.686Z,99716.08
2018-09-12T06:00:59.756Z,99912.24
2018-09-12T06:02:36.843Z,100137.18
2018-09-12T06:04:12.800Z,100334.61
2018-09-12T06:05:49.672Z,100472.83
2018-09-12T06:07:34.213Z,100610.88
2018-09-12T06:09:11.838Z,100652.88
2018-09-12T06:10:49.487Z,100411.43
2018-09-12T06:12:24.919Z,100106.16
2018-09-12T06:14:00.794Z,99898.49
2018-09-12T06:15:39.282Z,99871.94
2018-09-12T06:17:17.419Z,99925.02
2018-09-12T06:19:04.723Z,100023.73
2018-09-12T06:20:47.175Z,100062.38
2018-09-12T06:22:30.021Z,100106.84
2018-09-12T06:24:15.448Z,100001.61
2018-09-12T06:25:52.905Z,99802.63
2018-09-12T06:27:29.983Z,99815.55
2018-09-12T06:29:06.664Z,99878.61
2018-09-12T06:30:43.132Z,99736.49
2018-09-12T06:32:22.172Z,99741.91
2018-09-12T06:33:59.375Z,99813.22
2018-09-12T06:35:36.251Z,99861.34
2018-09-12T06:37:20.936Z,99924.28
2018-09-12T06:38:58.654Z,99924.28
2018-09-12T06:40:36.339Z,99926.99
2018-09-12T06:42:23.126Z,99908.46
2018-09-12T06:43:58.736Z,99963.87
2018-09-12T06:45:34.853Z,100076.71
2018-09-12T06:47:10.543Z,100035.45
2018-09-12T06:48:46.585Z,100101.66
2018-09-12T06:50:23.731Z,100433.89
2018-09-12T06:52:00.522Z,100596.17
2018-09-12T06:53:37.516Z,100819.67
2018-09-12T06:55:27.713Z,100683.66
2018-09-12T06:57:06.889Z,100297.00
2018-09-12T06:58:43.753Z,100021.32
2018-09-12T07:00:21.072Z,99849.58
2018-09-12T07:02:00.546Z,99790.88
2018-09-12T07:03:40.909Z,99707.11
2018-09-12T07:05:20.256Z,99863.28
2018-09-12T07:06:57.301Z,100080.97
2018-09-12T07:08:35.119Z,100304.56
2018-09-12T07:10:13.187Z,100410.97
2018-09-12T07:11:53.602Z,100550.38
2018-09-12T07:13:34.151Z,100609.27
2018-09-12T07:15:31.386Z,100548.67
2018-09-12T07:17:15.103Z,100390.06
2018-09-12T07:19:03.584Z,100278.39
2018-09-12T07:20:46.039Z,100166.37
2018-09-12T07:22:21.793Z,100317.64
2018-09-12T07:23:57.904Z,100492.16
2018-09-12T07:25:38.295Z,100565.13
2018-09-12T07:27:13.775Z,100539.73
2018-09-12T07:28:53.849Z,100427.65
2018-09-12T07:30:31.863Z,100520.66
2018-09-12T07:32:11.060Z,100603.93
2018-09-12T07:33:46.342Z,100593.67
2018-09-12T07:35:22.896Z,100637.39
2018-09-12T07:36:58.860Z,100678.41
2018-09-12T07:38:34.825Z,100747.69
2018-09-12T07:40:11.243Z,100783.80
2018-09-12T07:41:47.838Z,100769.03
2018-09-12T07:43:23.676Z,100759.13
2018-09-12T07:45:00.961Z,100831.42
2018-09-12T07:46:40.288Z,100778.84
2018-09-12T07:48:17.873Z,100861.95
2018-09-12T07:49:54.478Z,100968.20
2018-09-12T07:51:30.960Z,101021.44
2018-09-12T07:53:06.409Z,100962.01
2018-09-12T07:54:44.287Z,100986.46
2018-09-12T07:56:20.727Z,100910.23
2018-09-12T07:57:56.152Z,100924.50
2018-09-12T07:59:31.622Z,100958.80
2018-09-12T08:01:07.695Z,101004.84
2018-09-12T08:02:43.176Z,100977.16
2018-09-12T08:04:18.520Z,100873.58
2018-09-12T08:05:55.134Z,100876.69
2018-09-12T08:07:32.630Z,100718.28
2018-09-12T08:09:11.883Z,100687.91
2018-09-12T08:10:47.298Z,100899.05
2018-09-12T08:12:22.937Z,101072.86
2018-09-12T08:13:59.553Z,101153.75
2018-09-12T08:15:35.950Z,101104.16
2018-09-12T08:17:11.357Z,100915.06
2018-09-12T08:18:53.922Z,100849.41
2018-09-12T08:20:36.084Z,100948.19
2018-09-12T08:22:23.726Z,101131.00
2018-09-12T08:24:08.322Z,101275.11
2018-09-12T08:25:52.580Z,101241.53
2018-09-12T08:27:32.142Z,101201.27
2018-09-12T08:29:09.231Z,101144.52
2018-09-12T08:30:48.807Z,101013.41
2018-09-12T08:32:27.952Z,100935.77
2018-09-12T08:34:03.809Z,100912.08
2018-09-12T08:35:42.579Z,100923.14
2018-09-12T08:37:19.677Z,100966.45
2018-09-12T08:38:57.889Z,100977.16
2018-09-12T08:40:34.117Z,101034.96
2018-09-12T08:42:09.837Z,101069.29
2018-09-12T08:45:34.452Z,101124.80
2018-09-12T08:47:13.188Z,101072.02
2018-09-12T08:48:50.768Z,100894.19
2018-09-12T08:50:27.646Z,100863.30
2018-09-12T08:52:08.724Z,100886.91
2018-09-12T08:53:49.808Z,100908.88
2018-09-12T08:55:27.468Z,100951.30
2018-09-12T08:57:05.477Z,101073.86
2018-09-12T08:58:44.509Z,101039.83
2018-09-12T09:00:20.775Z,100913.34
2018-09-12T09:01:56.854Z,100906.73
2018-09-12T09:03:33.150Z,100925.47
2018-09-12T09:05:12.013Z,100825.72
2018-09-12T09:06:49.203Z,100826.20
2018-09-12T09:08:28.207Z,100843.58
2018-09-12T09:10:05.800Z,100820.95
2018-09-12T09:11:43.863Z,100729.94
2018-09-12T09:13:19.296Z,100875.91
2018-09-12T09:14:57.349Z,101041.19
2018-09-12T09:16:33.993Z,101070.73
2018-09-12T09:18:14.113Z,101122.08
2018-09-12T09:19:50.893Z,101137.32
2018-09-12T09:21:26.404Z,101174.39
2018-09-12T09:23:03.216Z,101077.73
2018-09-12T09:24:38.688Z,101006.78
2018-09-12T09:26:14.053Z,100972.28
2018-09-12T09:27:50.963Z,101066.17
2018-09-12T09:29:34.815Z,101131.48
2018-09-12T09:31:11.404Z,101211.95
2018-09-12T09:32:48.460Z,101258.55
2018-09-12T09:34:23.852Z,101259.06
2018-09-12T09:36:01.277Z,101221.48
2018-09-12T09:37:39.955Z,101222.37
2018-09-12T09:39:15.947Z,101220.13
2018-09-12T09:40:56.427Z,101222.37
2018-09-12T09:42:37.585Z,101284.04
2018-09-12T09:44:13.268Z,101281.44
2018-09-12T09:45:50.242Z,101265.75
2018-09-12T09:47:26.704Z,101253.09
2018-09-12T09:49:03.315Z,101214.38
2018-09-12T09:50:39.287Z,101217.01
2018-09-12T09:52:15.729Z,101169.13
2018-09-12T09:53:52.158Z,101296.21
2018-09-12T09:55:29.392Z,101288.13
2018-09-12T09:57:05.457Z,101308.78
2018-09-12T09:58:49.199Z,101319.87
2018-09-12T10:00:32.430Z,101358.03
2018-09-12T10:02:15.250Z,101393.75
2018-09-12T10:03:56.553Z,101390.14
2018-09-12T10:05:40.500Z,101329.31
2018-09-12T10:07:23.213Z,101356.19
2018-09-12T10:09:06.973Z,101396.47
2018-09-12T10:10:45.180Z,101437.29
2018-09-12T10:12:26.101Z,101490.61
2018-09-12T10:14:01.715Z,101497.70
2018-09-12T10:15:38.525Z,101495.46
2018-09-12T10:17:14.544Z,101476.27
2018-09-12T10:18:51.099Z,101558.23
2018-09-12T10:20:27.575Z,101529.56
2018-09-12T10:22:06.429Z,101502.28
2018-09-12T10:23:43.951Z,101528.29
2018-09-12T10:25:30.808Z,101560.47
2018-09-12T10:27:16.800Z,101529.17
2018-09-12T10:29:05.511Z,101623.34
2018-09-12T10:30:53.814Z,101658.72
2018-09-12T10:32:41.106Z,101638.53
2018-09-12T10:35:38.333Z,101709.42
2018-09-12T10:37:28.305Z,101660.56
2018-09-12T10:39:08.725Z,101697.73
2018-09-12T10:40:44.789Z,101683.38
2018-09-12T10:42:20.780Z,101609.39
2018-09-12T10:43:57.182Z,101683.38
2018-09-12T10:45:33.435Z,101552.45
2018-09-12T10:47:09.713Z,101595.47
2018-09-12T10:48:45.169Z,101716.95
2018-09-12T10:50:21.231Z,101817.08
2018-09-12T10:51:58.351Z,101876.82
2018-09-12T10:53:37.608Z,101731.88
2018-09-12T10:55:15.056Z,101770.04
2018-09-12T10:58:27.111Z,101959.03
2018-09-12T11:00:11.557Z,101951.81
2018-09-12T11:01:50.379Z,101942.33
2018-09-12T11:03:43.763Z,101932.48
2018-09-12T11:05:26.487Z,101908.75
2018-09-12T11:07:08.292Z,101888.91
2018-09-12T11:08:45.638Z,101753.87
2018-09-12T11:10:24.781Z,101836.91
2018-09-12T11:12:00.212Z,101813.95
2018-09-12T11:13:42.573Z,101839.44
2018-09-12T11:15:19.866Z,101851.64
2018-09-12T11:17:05.189Z,101875.45
2018-09-12T11:18:42.370Z,101957.19
2018-09-12T11:20:19.828Z,102018.73
2018-09-12T11:21:57.193Z,102040.36
2018-09-12T11:23:36.683Z,102056.16
2018-09-12T11:25:15.091Z,102000.34
2018-09-12T11:26:54.194Z,101865.58
2018-09-12T11:28:40.729Z,101868.23
2018-09-12T11:30:20.213Z,101937.34
2018-09-12T11:31:56.083Z,102004.76
2018-09-12T11:33:31.755Z,102018.26
2018-09-12T11:35:07.167Z,101972.34
2018-09-12T11:36:44.339Z,101915.78
2018-09-12T11:38:20.563Z,101900.95
2018-09-12T11:39:59.500Z,101885.61
2018-09-12T11:41:38.823Z,101710.53
2018-09-12T11:43:18.359Z,101540.30
2018-09-12T11:44:56.993Z,101586.28
2018-09-12T11:46:38.428Z,101569.24
2018-09-12T11:48:14.353Z,101565.72
2018-09-12T11:49:49.879Z,101671.02
2018-09-12T11:51:27.133Z,101703.39
2018-09-12T11:53:07.596Z,101636.01
2018-09-12T11:54:44.662Z,101593.42
2018-09-12T11:56:25.550Z,101637.37
2018-09-12T11:58:07.930Z,101645.95
2018-09-12T11:59:48.872Z,101649.08
2018-09-12T12:01:26.821Z,101679.12
2018-09-12T12:03:02.747Z,101640.41
2018-09-12T12:04:38.773Z,101533.00
2018-09-12T12:06:14.149Z,101525.31
2018-09-12T12:07:49.671Z,101546.35
2018-09-12T12:09:25.860Z,101574.53
2018-09-12T12:11:03.863Z,101466.56
2018-09-12T12:12:39.618Z,101569.16
2018-09-12T12:14:14.999Z,101644.51
2018-09-12T12:15:54.387Z,101679.92
2018-09-12T12:17:33.956Z,101726.94
2018-09-12T12:19:15.365Z,101629.19
2018-09-12T12:20:52.955Z,101610.69
2018-09-12T12:22:28.424Z,101524.70
2018-09-12T12:24:19.626Z,101504.14
2018-09-12T12:25:56.766Z,101423.45
2018-09-12T12:27:33.254Z,101511.76
2018-09-12T12:29:11.631Z,101647.03
2018-09-12T12:30:49.117Z,101744.43
2018-09-12T12:32:48.055Z,101806.87
2018-09-12T12:34:36.706Z,101809.09
2018-09-12T12:36:35.410Z,101716.14
2018-09-12T12:38:13.920Z,101745.31
2018-09-12T12:39:59.025Z,101819.84
2018-09-12T12:41:35.811Z,101844.05
2018-09-12T12:43:24.043Z,101872.84
2018-09-12T12:45:01.315Z,101819.93
2018-09-12T12:46:42.272Z,101865.14
2018-09-12T12:48:33.301Z,101936.98
2018-09-12T12:50:15.948Z,101876.38
2018-09-12T12:51:53.071Z,101759.64
2018-09-12T12:53:47.557Z,101554.24
2018-09-12T12:55:42.034Z,101304.19
2018-09-12T12:57:29.277Z,101154.76
2018-09-12T12:59:36.756Z,101134.12
2018-09-12T13:01:13.100Z,101133.73
2018-09-12T13:02:48.722Z,101186.88
2018-09-12T13:04:25.805Z,101242.81
2018-09-12T13:06:02.865Z,101264.80
2018-09-12T13:07:38.962Z,101308.67
2018-09-12T13:09:14.291Z,101355.20
2018-09-12T13:10:52.095Z,101381.10
2018-09-12T13:12:28.555Z,101339.63
2018-09-12T13:14:03.893Z,101322.52
2018-09-12T13:15:41.520Z,101186.00
2018-09-12T13:17:20.447Z,101172.67
2018-09-12T13:18:56.180Z,101121.20
2018-09-12T13:20:31.572Z,101053.63
2018-09-12T13:22:08.771Z,101045.63
2018-09-12T13:23:45.300Z,101049.14
2018-09-12T13:25:21.641Z,101051.87
2018-09-12T13:26:58.491Z,100983.95
2018-09-12T13:28:33.862Z,100780.69
2018-09-12T13:30:09.426Z,100670.06
2018-09-12T13:31:46.353Z,100664.33
2018-09-12T13:33:21.678Z,100633.00
2018-09-12T13:34:57.677Z,100527.30
2018-09-12T13:36:35.672Z,100414.62
2018-09-12T13:38:11.526Z,100343.45
2018-09-12T13:39:48.513Z,100296.70
2018-09-12T13:41:28.030Z,100249.90
2018-09-12T13:43:03.330Z,100216.16
2018-09-12T13:44:41.558Z,100150.39
2018-09-12T13:46:19.615Z,100129.12
2018-09-12T13:47:58.445Z,100123.20
2018-09-12T13:49:37.772Z,100047.70
2018-09-12T13:51:13.492Z,99961.94
2018-09-12T13:52:49.750Z,99886.98
2018-09-12T13:54:27.171Z,99774.73
2018-09-12T13:56:06.636Z,99744.41
2018-09-12T13:57:42.454Z,99735.63
2018-09-12T13:59:22.546Z,99714.69
2018-09-12T14:00:57.813Z,99698.78
2018-09-12T14:02:33.870Z,99676.46
2018-09-12T14:04:10.615Z,99599.03
2018-09-12T14:05:47.123Z,99607.53
2018-09-12T14:07:22.490Z,99575.98
2018-09-12T14:08:57.865Z,99533.11
2018-09-12T14:10:34.557Z,99479.05
2018-09-12T14:12:10.711Z,99436.43
2018-09-12T14:13:47.705Z,99443.09
2018-09-12T14:15:25.168Z,99523.26
2018-09-12T14:17:01.733Z,99503.32
2018-09-12T14:18:39.953Z,99515.73
2018-09-12T14:20:15.377Z,99468.81
2018-09-12T14:21:51.230Z,99441.73
2018-09-12T14:23:28.514Z,99355.47
2018-09-12T14:25:04.825Z,99294.39
2018-09-12T14:26:42.343Z,99269.55
2018-09-12T14:28:19.162Z,99317.50
2018-09-12T14:29:57.203Z,99367.87
2018-09-12T14:31:32.518Z,99402.84
2018-09-12T14:33:08.538Z,99413.41
2018-09-12T14:34:44.740Z,99403.81
2018-09-12T14:36:20.911Z,99394.34
2018-09-12T14:37:57.548Z,99398.41
2018-09-12T14:39:34.812Z,99343.58
2018-09-12T14:41:11.501Z,99207.81
2018-09-12T14:42:47.606Z,99142.91
2018-09-12T14:44:23.140Z,99076.53
2018-09-12T14:46:00.220Z,99053.56
2018-09-12T14:47:36.068Z,98978.63
2018-09-12T14:49:12.017Z,98977.76
2018-09-12T14:50:49.632Z,99066.95
2018-09-12T14:52:26.361Z,99110.31
2018-09-12T14:54:03.003Z,99168.97
2018-09-12T14:55:38.458Z,99199.92
2018-09-12T14:57:13.889Z,99161.94
2018-09-12T14:58:49.291Z,99190.71
2018-09-12T15:00:27.841Z,99171.29
2018-09-12T15:02:05.266Z,99259.30
2018-09-12T15:03:43.207Z,99263.73
2018-09-12T15:05:20.753Z,99158.86
2018-09-12T15:06:56.356Z,99040.05
2018-09-12T15:08:32.454Z,98933.68
2018-09-12T15:10:08.158Z,98957.13
2018-09-12T15:11:46.040Z,98918.30
2018-09-12T15:13:23.975Z,98830.57
2018-09-12T15:14:59.387Z,98772.81
2018-09-12T15:16:34.847Z,98756.48
2018-09-12T15:18:12.883Z,98677.97
2018-09-12T15:19:52.083Z,98602.12
2018-09-12T15:21:28.476Z,98566.48
2018-09-12T15:23:08.960Z,98624.55
2018-09-12T15:24:46.693Z,98619.30
2018-09-12T15:26:25.215Z,98542.23
2018-09-12T15:28:06.091Z,98486.52
2018-09-12T15:29:44.109Z,98426.16
2018-09-12T15:31:20.274Z,98445.98
2018-09-12T15:32:55.584Z,98487.72
2018-09-12T15:34:34.462Z,98456.63
2018-09-12T15:36:14.645Z,98394.94
2018-09-12T15:37:51.363Z,98338.75
2018-09-12T15:39:29.535Z,98284.67
2018-09-12T15:41:05.993Z,98274.66
2018-09-12T15:42:42.364Z,98240.66
2018-09-12T15:44:17.833Z,98224.91
2018-09-12T15:45:53.134Z,98222.70
2018-09-12T15:47:28.429Z,98232.86
2018-09-12T15:49:05.185Z,98269.77
2018-09-12T15:50:41.368Z,98242.87
2018-09-12T15:52:16.697Z,98258.89
2018-09-12T15:53:52.130Z,98233.83
2018-09-12T15:55:34.424Z,98254.86
2018-09-12T15:57:11.994Z,98268.42
2018-09-12T15:58:48.992Z,98231.14
2018-09-12T16:00:28.492Z,98239.44
2018-09-12T16:02:06.489Z,98221.95
2018-09-12T16:03:42.558Z,98169.78
2018-09-12T16:05:21.096Z,98099.38
2018-09-12T16:06:56.515Z,98107.93
2018-09-12T16:08:35.841Z,98158.77
2018-09-12T16:10:11.404Z,98173.30
2018-09-12T16:11:49.339Z,98156.20
2018-09-12T16:13:31.684Z,98188.23
2018-09-12T16:15:08.584Z,98129.31
2018-09-12T16:16:47.195Z,98124.05
2018-09-12T16:18:23.150Z,98038.44
2018-09-12T16:20:02.827Z,98040.38
2018-09-12T16:21:39.235Z,98102.55
2018-09-12T16:23:18.077Z,98117.59
2018-09-12T16:24:54.761Z,98110.50
2018-09-12T16:26:30.191Z,98066.28
2018-09-12T16:28:06.571Z,98042.47
2018-09-12T16:29:54.772Z,98036.02
2018-09-12T16:31:32.521Z,98053.10
2018-09-12T16:33:09.701Z,98083.03
2018-09-12T16:34:47.619Z,98116.85
2018-09-12T16:36:24.516Z,98105.88
2018-09-12T16:38:00.789Z,98072.40
2018-09-12T16:39:39.765Z,98078.14
2018-09-12T16:41:18.045Z,98108.41
2018-09-12T16:42:56.774Z,98106.36
2018-09-12T16:44:32.696Z,98047.96
2018-09-12T16:46:10.640Z,98009.23
2018-09-12T16:47:47.000Z,98004.47
2018-09-12T16:49:23.309Z,97975.52
2018-09-12T16:50:58.700Z,97911.58
2018-09-12T16:52:34.499Z,97916.95
2018-09-12T16:54:11.624Z,97996.67
2018-09-12T16:55:46.900Z,98066.05
2018-09-12T16:57:22.379Z,98071.80
2018-09-12T16:59:03.961Z,98051.14
2018-09-12T17:00:43.167Z,97967.24
2018-09-12T17:02:20.216Z,97953.45
2018-09-12T17:03:56.241Z,98001.03
2018-09-12T17:05:33.204Z,98018.64
2018-09-12T17:07:10.228Z,97988.47
2018-09-12T17:08:47.022Z,97964.78
2018-09-12T17:10:23.419Z,97965.77
2018-09-12T17:12:08.297Z,97953.45
2018-09-12T17:13:48.305Z,97966.13
2018-09-12T17:15:40.108Z,97968.81
2018-09-12T17:17:18.409Z,98000.81
2018-09-12T17:18:54.818Z,97850.45
2018-09-12T17:20:35.563Z,97897.79
2018-09-12T17:22:13.892Z,97924.15
2018-09-12T17:23:50.265Z,97922.44
2018-09-12T17:25:28.093Z,97941.26
2018-09-12T17:27:03.978Z,97889.14
2018-09-12T17:28:42.927Z,97915.50
2018-09-12T17:30:28.023Z,97918.92
2018-09-12T17:32:05.723Z,97908.42
2018-09-12T17:33:44.234Z,97831.19
2018-09-12T17:35:22.392Z,97727.20
2018-09-12T17:37:00.162Z,97780.97
2018-09-12T17:38:38.352Z,97786.19
2018-09-12T17:40:13.937Z,97725.85
2018-09-12T17:41:51.568Z,97746.45
2018-09-12T17:46:08.296Z,97802.91
2018-09-12T17:47:44.275Z,97811.19
2018-09-12T17:49:22.133Z,97855.61
2018-09-12T17:50:58.017Z,97803.41
2018-09-12T17:52:34.290Z,97814.51
2018-09-12T17:54:12.114Z,97715.88
2018-09-12T17:55:47.455Z,97813.87
2018-09-12T17:57:23.807Z,97831.58
2018-09-12T17:58:59.498Z,97905.14
2018-09-12T18:00:36.048Z,97955.52
2018-09-12T18:02:11.396Z,97963.58
2018-09-12T18:03:47.773Z,97926.73
2018-09-12T18:05:23.261Z,97847.41
2018-09-12T18:06:58.616Z,97853.53
2018-09-12T18:08:46.295Z,97906.97
2018-09-12T18:10:25.335Z,97975.43
2018-09-12T18:12:04.465Z,98047.83
2018-09-12T18:13:46.406Z,97996.54
2018-09-12T18:15:40.136Z,97987.41
2018-09-12T18:17:21.526Z,97986.43
2018-09-12T18:18:58.792Z,98012.91
2018-09-12T18:20:35.723Z,98030.86
2018-09-12T18:22:13.893Z,97853.30
2018-09-12T18:23:58.374Z,97946.77
2018-09-12T18:25:36.171Z,97988.86
2018-09-12T18:27:14.337Z,98003.26
2018-09-12T18:28:54.932Z,98078.77
2018-09-12T18:30:31.976Z,98064.81
2018-09-12T18:32:09.394Z,98025.72
2018-09-12T18:33:46.611Z,98009.98
2018-09-12T18:35:23.824Z,98051.23
2018-09-12T18:37:00.355Z,98058.81
2018-09-12T18:38:38.808Z,97942.48
2018-09-12T18:40:14.670Z,97914.55
2018-09-12T18:41:50.257Z,97848.77
2018-09-12T18:43:26.602Z,97908.81
2018-09-12T18:45:02.802Z,97921.86
2018-09-12T18:46:38.520Z,97847.09
2018-09-12T18:48:16.441Z,97924.66
2018-09-12T18:49:52.033Z,97918.09
2018-09-12T18:51:27.904Z,97882.58
2018-09-12T18:53:07.500Z,97972.38
2018-09-12T18:54:43.311Z,98047.58
2018-09-12T18:56:20.904Z,98092.77
2018-09-12T18:58:00.932Z,98107.73
2018-09-12T18:59:36.400Z,98054.07
2018-09-12T19:01:13.468Z,97958.59
2018-09-12T19:02:51.130Z,97950.66
2018-09-12T19:04:27.752Z,98004.61
2018-09-12T19:06:03.941Z,98060.42
2018-09-12T19:07:41.729Z,98102.95
2018-09-12T19:09:18.412Z,98007.30
2018-09-12T19:10:55.978Z,97969.96
2018-09-12T19:12:36.528Z,98000.84
2018-09-12T19:14:14.160Z,98044.19